createdAt,value
2019-05-19T00:00:30.134Z,2.93
2019-05-19T00:05:25.057Z,2.93
2019-05-19T00:10:20.394Z,4.20
2019-05-19T00:15:15.452Z,3.17
2019-05-19T00:20:10.523Z,2.80
2019-05-19T00:25:05.660Z,3.57
2019-05-19T00:30:00.652Z,3.23
2019-05-19T00:34:55.614Z,3.23
2019-05-19T00:39:56.423Z,3.20
2019-05-19T00:44:51.456Z,3.07
2019-05-19T00:49:46.473Z,3.33
2019-05-19T00:54:41.454Z,3.57
2019-05-19T00:59:37.393Z,3.53
2019-05-19T01:04:32.282Z,3.80
2019-05-19T01:09:27.133Z,3.53
2019-05-19T01:14:21.985Z,3.57
2019-05-19T01:19:16.953Z,3.40
2019-05-19T01:24:11.811Z,3.57
2019-05-19T01:29:06.689Z,3.40
2019-05-19T01:34:01.564Z,3.50
2019-05-19T01:38:56.426Z,3.43
2019-05-19T01:43:51.557Z,3.40
2019-05-19T01:48:46.413Z,3.60
2019-05-19T01:53:41.309Z,3.33
2019-05-19T01:58:36.157Z,3.90
2019-05-19T02:03:31.108Z,3.97
2019-05-19T02:08:25.954Z,3.57
2019-05-19T02:13:20.875Z,3.70
2019-05-19T02:18:15.841Z,4.93
2019-05-19T02:23:10.799Z,3.90
2019-05-19T02:28:06.682Z,4.27
2019-05-19T02:33:01.622Z,4.47
2019-05-19T02:37:56.456Z,4.57
2019-05-19T02:42:52.071Z,4.23
2019-05-19T02:47:47.423Z,4.30
2019-05-19T02:52:43.068Z,4.40
2019-05-19T02:57:38.834Z,4.20
2019-05-19T03:02:33.883Z,4.10
2019-05-19T03:07:28.781Z,4.10
2019-05-19T03:12:23.654Z,4.40
2019-05-19T03:17:18.560Z,4.13
2019-05-19T03:22:13.790Z,4.30
2019-05-19T03:27:08.675Z,3.97
2019-05-19T03:32:13.603Z,4.97
2019-05-19T03:37:08.567Z,4.00
2019-05-19T03:42:04.506Z,4.10
2019-05-19T03:46:59.376Z,4.40
2019-05-19T03:51:54.269Z,4.67
2019-05-19T03:56:49.162Z,4.77
2019-05-19T04:01:44.060Z,4.20
2019-05-19T04:06:39.057Z,3.93
2019-05-19T04:11:33.902Z,7.37
2019-05-19T04:16:28.801Z,5.20
2019-05-19T04:21:23.662Z,4.60
2019-05-19T04:26:18.520Z,4.33
2019-05-19T04:31:13.490Z,4.43
2019-05-19T04:36:08.392Z,4.40
2019-05-19T04:41:03.327Z,4.50
2019-05-19T04:45:58.193Z,6.93
2019-05-19T04:50:53.068Z,4.83
2019-05-19T04:55:48.957Z,4.43
2019-05-19T05:00:43.838Z,5.07
2019-05-19T05:05:44.795Z,5.53
2019-05-19T05:10:39.804Z,5.47
2019-05-19T05:15:35.146Z,5.87
2019-05-19T05:20:30.588Z,6.60
2019-05-19T05:25:25.535Z,6.20
2019-05-19T05:30:22.668Z,6.30
2019-05-19T05:35:17.718Z,7.40
2019-05-19T05:40:12.715Z,6.00
2019-05-19T05:45:08.363Z,5.40
2019-05-19T05:50:03.295Z,4.87
2019-05-19T05:54:58.524Z,5.30
2019-05-19T05:59:53.446Z,4.60
2019-05-19T06:04:51.453Z,4.77
2019-05-19T06:09:46.826Z,4.27
2019-05-19T06:14:41.788Z,4.47
2019-05-19T06:19:36.778Z,3.97
2019-05-19T06:24:34.950Z,4.17
2019-05-19T06:29:29.908Z,6.00
2019-05-19T06:34:24.917Z,4.10
2019-05-19T06:39:19.874Z,4.03
2019-05-19T06:44:14.845Z,3.80
2019-05-19T06:49:09.720Z,4.60
2019-05-19T06:54:04.851Z,4.97
2019-05-19T06:58:59.838Z,5.07
2019-05-19T07:03:55.673Z,4.93
2019-05-19T07:08:51.596Z,4.50
2019-05-19T07:13:46.548Z,5.23
2019-05-19T07:18:41.551Z,5.30
2019-05-19T07:23:36.467Z,5.42
2019-05-19T07:28:31.400Z,5.43
2019-05-19T07:33:25.288Z,5.45
2019-05-19T07:38:19.883Z,5.70
2019-05-19T07:43:14.937Z,7.15
2019-05-19T07:48:12.089Z,6.12
2019-05-19T07:53:07.024Z,5.22
2019-05-19T07:58:01.972Z,4.97
2019-05-19T08:03:00.017Z,5.93
2019-05-19T08:07:58.067Z,5.90
2019-05-19T08:12:53.006Z,5.75
2019-05-19T08:17:47.982Z,5.53
2019-05-19T08:22:45.956Z,5.75
2019-05-19T08:27:46.931Z,5.25
2019-05-19T08:32:42.866Z,5.72
2019-05-19T08:37:37.835Z,5.40
2019-05-19T08:42:33.754Z,6.08
2019-05-19T08:47:32.064Z,5.92
2019-05-19T08:52:26.996Z,5.85
2019-05-19T08:57:21.901Z,6.08
2019-05-19T09:02:16.820Z,6.12
2019-05-19T09:07:11.729Z,6.12
2019-05-19T09:12:06.819Z,6.17
2019-05-19T09:17:01.890Z,5.67
2019-05-19T09:21:57.712Z,6.08
2019-05-19T09:26:56.554Z,6.92
2019-05-19T09:31:52.383Z,5.75
2019-05-19T09:36:49.314Z,6.50
2019-05-19T09:41:44.151Z,6.50
2019-05-19T09:46:38.984Z,6.55
2019-05-19T09:51:35.168Z,6.65
2019-05-19T09:56:31.240Z,6.65
2019-05-19T10:01:26.195Z,5.22
2019-05-19T10:06:21.112Z,6.22
2019-05-19T10:12:00.865Z,6.00
2019-05-19T10:16:55.861Z,6.50
2019-05-19T10:21:50.804Z,6.22
2019-05-19T10:26:45.831Z,11.05
2019-05-19T10:31:40.790Z,5.50
2019-05-19T10:36:35.693Z,5.40
2019-05-19T10:41:30.600Z,6.22
2019-05-19T10:46:25.493Z,5.10
2019-05-19T10:51:20.689Z,4.58
2019-05-19T10:56:15.582Z,5.03
2019-05-19T11:01:10.515Z,5.15
2019-05-19T11:06:05.850Z,6.92
2019-05-19T11:11:00.755Z,5.30
2019-05-19T11:15:57.026Z,5.37
2019-05-19T11:20:51.914Z,5.22
2019-05-19T11:25:51.583Z,5.10
2019-05-19T11:30:43.540Z,5.97
2019-05-19T11:35:38.470Z,4.95
2019-05-19T11:40:33.385Z,4.92
2019-05-19T11:45:28.304Z,4.47
2019-05-19T11:50:25.214Z,5.20
2019-05-19T11:55:20.112Z,5.05
2019-05-19T12:00:15.290Z,4.47
2019-05-19T12:05:10.384Z,5.55
2019-05-19T12:10:05.469Z,4.62
2019-05-19T12:15:00.397Z,6.53
2019-05-19T12:19:55.366Z,4.70
2019-05-19T12:24:50.297Z,5.83
2019-05-19T12:29:45.184Z,4.75
2019-05-19T12:34:42.133Z,5.03
2019-05-19T12:39:37.005Z,5.00
2019-05-19T12:44:31.962Z,5.35
2019-05-19T12:49:26.929Z,5.37
2019-05-19T12:54:21.840Z,5.95
2019-05-19T12:59:20.047Z,5.20
2019-05-19T13:04:15.010Z,5.92
2019-05-19T13:09:10.247Z,7.00
2019-05-19T13:14:05.347Z,6.47
2019-05-19T13:19:00.274Z,8.05
2019-05-19T13:24:01.142Z,5.85
2019-05-19T13:28:58.069Z,6.78
2019-05-19T13:33:53.967Z,6.78
2019-05-19T13:38:54.596Z,6.45
2019-05-19T13:43:49.471Z,6.90
2019-05-19T13:48:50.216Z,6.53
2019-05-19T13:53:45.197Z,6.65
2019-05-19T13:58:40.226Z,7.78
2019-05-19T14:03:35.135Z,7.75
2019-05-19T14:08:30.088Z,7.33
2019-05-19T14:13:28.143Z,7.62
2019-05-19T14:18:23.057Z,7.47
2019-05-19T14:23:18.032Z,9.08
2019-05-19T14:28:13.377Z,7.95
2019-05-19T14:33:08.318Z,8.20
2019-05-19T14:38:03.365Z,9.95
2019-05-19T14:43:01.531Z,10.53
2019-05-19T14:47:56.533Z,16.70
2019-05-19T14:52:51.376Z,13.00
2019-05-19T14:57:49.458Z,11.37
2019-05-19T15:02:47.571Z,14.83
2019-05-19T15:07:43.605Z,15.60
2019-05-19T15:12:41.644Z,11.53
2019-05-19T15:17:36.486Z,17.17
2019-05-19T15:22:31.445Z,13.77
2019-05-19T15:27:26.320Z,11.47
2019-05-19T15:32:21.204Z,13.30
2019-05-19T15:37:16.094Z,10.20
2019-05-19T15:42:11.033Z,11.87
2019-05-19T15:47:05.900Z,13.80
2019-05-19T15:52:04.105Z,10.17
2019-05-19T15:56:58.388Z,9.63
2019-05-19T16:01:59.379Z,11.17
2019-05-19T16:06:54.337Z,19.57
2019-05-19T16:11:49.275Z,6.07
2019-05-19T16:16:44.199Z,3.20
2019-05-19T16:21:39.148Z,3.30
2019-05-19T16:26:34.094Z,7.10
2019-05-19T16:31:29.415Z,6.20
2019-05-19T16:36:24.379Z,9.23
2019-05-19T16:41:19.397Z,7.87
2019-05-19T16:46:14.364Z,10.33
2019-05-19T16:51:09.460Z,45.93
2019-05-19T16:56:04.861Z,23.27
2019-05-19T17:00:59.794Z,19.03
2019-05-19T17:05:54.745Z,17.73
2019-05-19T17:10:49.699Z,15.33
2019-05-19T17:15:44.939Z,15.00
2019-05-19T17:20:39.913Z,17.43
2019-05-19T17:25:35.065Z,19.93
2019-05-19T17:30:30.152Z,13.00
2019-05-19T17:35:25.137Z,14.77
2019-05-19T17:40:21.155Z,14.30
2019-05-19T17:45:16.434Z,16.27
2019-05-19T17:50:21.181Z,17.00
2019-05-19T17:55:16.151Z,25.00
2019-05-19T18:00:11.295Z,19.03
2019-05-19T18:05:07.415Z,17.00
2019-05-19T18:10:03.406Z,15.13
2019-05-19T18:14:58.362Z,17.07
2019-05-19T18:19:53.354Z,15.27
2019-05-19T18:24:48.572Z,15.20
2019-05-19T18:29:43.564Z,15.50
2019-05-19T18:34:39.294Z,14.73
2019-05-19T18:39:37.624Z,15.60
2019-05-19T18:44:32.594Z,14.97
2019-05-19T18:49:31.424Z,15.37
2019-05-19T18:54:26.650Z,13.83
2019-05-19T18:59:21.936Z,14.47
2019-05-19T19:04:16.870Z,13.70
2019-05-19T19:09:12.096Z,13.63
2019-05-19T19:14:10.191Z,12.33
2019-05-19T19:19:05.192Z,14.13
2019-05-19T19:24:00.119Z,13.47
2019-05-19T19:28:55.095Z,13.23
2019-05-19T19:33:56.096Z,13.40
2019-05-19T19:38:51.086Z,12.80
2019-05-19T19:43:46.104Z,11.53
2019-05-19T19:48:44.234Z,13.33
2019-05-19T19:53:39.211Z,13.73
2019-05-19T19:58:35.069Z,12.03
2019-05-19T20:03:32.229Z,12.90
2019-05-19T20:08:27.142Z,12.50
2019-05-19T20:13:22.130Z,18.40
2019-05-19T20:18:17.400Z,12.53
2019-05-19T20:23:14.375Z,11.47
2019-05-19T20:28:09.392Z,10.30
2019-05-19T20:33:04.320Z,11.93
2019-05-19T20:37:59.286Z,13.47
2019-05-19T20:42:56.804Z,9.77
2019-05-19T20:47:51.177Z,8.53
2019-05-19T20:52:47.116Z,12.37
2019-05-19T20:57:42.126Z,8.97
2019-05-19T21:02:37.103Z,12.17
2019-05-19T21:07:32.117Z,12.57
2019-05-19T21:12:30.745Z,11.70
2019-05-19T21:17:28.744Z,9.67
2019-05-19T21:22:26.532Z,10.83
2019-05-19T21:27:21.484Z,9.97
2019-05-19T21:32:18.516Z,9.07
2019-05-19T21:37:13.431Z,11.60
2019-05-19T21:42:12.133Z,11.60
2019-05-19T21:47:07.055Z,13.10
2019-05-19T21:52:05.632Z,13.50
2019-05-19T21:57:01.297Z,15.30
2019-05-19T22:01:56.351Z,12.83
2019-05-19T22:06:58.282Z,14.97
2019-05-19T22:11:53.297Z,12.83
2019-05-19T22:16:48.359Z,12.80
2019-05-19T22:21:43.388Z,13.13
2019-05-19T22:26:38.439Z,11.87
2019-05-19T22:31:36.813Z,14.67
2019-05-19T22:36:30.023Z,12.23
2019-05-19T22:41:24.984Z,10.90
2019-05-19T22:46:19.987Z,10.93
2019-05-19T22:51:15.522Z,10.10
2019-05-19T22:56:10.501Z,10.37
2019-05-19T23:01:12.977Z,8.83
2019-05-19T23:06:11.196Z,10.10
2019-05-19T23:11:11.616Z,13.37
2019-05-19T23:16:09.627Z,12.43
2019-05-19T23:21:06.891Z,14.13
2019-05-19T23:26:03.946Z,10.63
2019-05-19T23:30:58.818Z,11.03
2019-05-19T23:35:53.700Z,10.67
2019-05-19T23:40:51.200Z,10.87
2019-05-19T23:45:46.101Z,11.27
2019-05-19T23:50:40.941Z,10.10
2019-05-19T23:55:41.880Z,12.17
